Colorado Springs, CO (80919)

11:48 AM MST on December 05, 2016 (GMT -0700)
At the Orton-Urbina's | | Change Station

Elev 6700 ft 38.93 °N, 104.85 °W | Updated 3 minutes ago

Clear
Clear
48.5 °F
Feels Like 42 °F
N
19.6
Wind Variable Wind from SW
Gusts 29.0 mph

Today
High -- | Low -- °F
--% Chance of Precip.
Yesterday
High -- | Low -- °F
Precip. -- in
Pressure 29.61 in
Visibility 10.0 miles
Clouds Clear
Windchill 42 °F
Dew Point 9 °F
Humidity 20%
Rainfall Not available.
Snow Depth Not available.
7:03 AM 4:37 PM
Waxing Crescent, 34% visible
METAR KAFF 051758Z AUTO 26021G30KT 10SM CLR 11/M13 A2964 RMK AO2 PK WND 27039/55 SLP026 T01111129 10112 21012 53009
Pressure 29.61 in
Visibility 10.0 miles
Clouds Clear
Windchill 42 °F
Dew Point 9 °F
Humidity 20%
Rainfall Not available.
Snow Depth Not available.
7:03 AM 4:37 PM
Waxing Crescent, 34% visible
METAR KAFF 051758Z AUTO 26021G30KT 10SM CLR 11/M13 A2964 RMK AO2 PK WND 27039/55 SLP026 T01111129 10112 21012 53009

10-Day Weather Forecast

Almanac

Astronomy

Dec. 05, 2016 Rise Set
Actual Time
Civil Twilight
Nautical Twilight
Astronomical Twilight
Moon
Length of Visible Light
Length of Day
Tomorrow will be .
, % of the Moon is Illuminated

Today's Extremes

State Highs State Lows

Community

WunderPhotos

Upload Photos

1,955,845 photos uploaded!

WunderBlog® & News

Nearby

Air Quality

  Air Quality AQ Index Pollutant
Not available.

Snow Depth

Station Depth Elevation

Earthquake Activity

City Distance Mag. Time & Date
Minimum magnitude displayed is 2.5.

Coastal Water Temperatures

Place Temperature

Stations

Nearby Weather Stations

Station Location Temp. Windchill Dew Point Humidity Wind Precip. Elev Updated Type
                   

Watches & Warnings

There are currently no watches in effect.